Buckhorn, Canada
Current Conditions -  °F | °C
As of 11:00 PM on Tuesday 27 Jan 2015 (Local Time) from CYPQ Reporting Station
Clear Clear  
Wind Chill:   Ceiling: Unl
Heat Index: 10°   Visibility: 9mi
Dew Point: -2°   Wind: 5mph
Humidity: 57%   Direction: 310°NW
Pressure: 30.1"   Gusts: NA
Location:  44.55°N, 78.33°W
Report Text: CYPQ 280400Z AUTO 31004KT 9SM CLR M12/M19 A3010 RMK SLP207
Loading
Personal Weather Stations






























Interactive Weather Map New forecast layout! Learn more

10-Day Weather Forecast

Advertisements
Track Severe Weather on mobile